This is the latest recevied weather packets stored in our database for station/object N9XTN-3. If no packets are shown the sender has not sent any weather packets the latest 10 day(s).
| Time | Temp. | Humidity | Pressure | Rain* | Wind** | Luminosity | Snow |
|---|---|---|---|---|---|---|---|
| 1777493156 | 16.11° C | 43% | 1019.4 hPa | 0 mm | - | - | - |
| 1777491316 | 15.56° C | 49% | 1019.9 hPa | 0 mm | - | - | - |
| 1777489516 | 15° C | 46% | 1020.1 hPa | 0 mm | - | - | - |
| 1777489216 | 14.44° C | 48% | 1020.2 hPa | 0 mm | - | - | - |
| 1777488616 | 14.44° C | 46% | 1020.3 hPa | 0 mm | - | - | - |
| 1777487116 | 13.89° C | 48% | 1020.7 hPa | 0 mm | - | - | - |
| 1777481116 | 11.67° C | 62% | 1021.8 hPa | 0 mm | - | - | - |
| 1777480816 | 11.67° C | 62% | 1021.8 hPa | 0 mm | - | - | - |
| 1777479616 | 11.67° C | 66% | 1021.8 hPa | 0 mm | - | - | - |
| 1777478716 | 11.11° C | 69% | 1021.8 hPa | 0 mm | - | - | - |
| 1777477236 | 10.56° C | 77% | 1021.6 hPa | 0 mm | - | - | - |
| 1777474516 | 9.44° C | 83% | 1021.7 hPa | 0 mm | - | - | - |
| 1777466116 | 3.33° C | 96% | 1021.5 hPa | 0 mm | - | - | - |
| 1777463116 | 1.67° C | 94% | 1021 hPa | 0 mm | - | - | - |
| 1777462816 | 2.22° C | 94% | 1020.9 hPa | 0 mm | - | - | - |
| 1777462236 | 2.22° C | 95% | 1020.7 hPa | 0 mm | - | - | - |
| 1777461616 | 2.22° C | 94% | 1020.6 hPa | 0 mm | - | - | - |
| 1777461316 | 2.22° C | 94% | 1020.6 hPa | 0 mm | - | - | - |
| 1777460716 | 2.22° C | 94% | 1020.7 hPa | 0 mm | - | - | - |
| 1777460416 | 2.78° C | 93% | 1020.8 hPa | 0 mm | - | - | - |
| 1777460116 | 2.78° C | 94% | 1020.8 hPa | 0 mm | - | - | - |
| 1777458616 | 2.78° C | 94% | 1020.4 hPa | 0 mm | - | - | - |
| 1777457436 | 2.78° C | 94% | 1020.2 hPa | 0 mm | - | - | - |
| 1777456516 | 3.33° C | 93% | 1020.3 hPa | 0 mm | - | - | - |
| 1777455616 | 3.89° C | 93% | 1020 hPa | 0 mm | - | - | - |
* Rain latest hour (hover to see other rain measurements)
** Current wind speed in m/s (hover to see current wind gust speed)